Time;durP1;ratioP1;P1;durP2;ratioP2;P2;SDS_P1;SDS_P2;PMS_P1;PMS_P2;Temp;Humidity;BMP_temperature;BMP_pressure;BME280_temperature;BME280_humidity;BME280_pressure;Samples;Min_cycle;Max_cycle;Signal;HPM_P1;HPM_P2
2022/10/03 00:02:25;;;;;;;21.98;8.30;;;;;;;11.47;100.00;98701.97;5052908;28;20049;-75
2022/10/03 00:05:14;;;;;;;16.88;7.22;;;;;;;11.47;100.00;98701.97;5053255;28;20048;-75
2022/10/03 00:07:58;;;;;;;16.00;6.95;;;;;;;11.47;100.00;98701.97;5054253;27;20101;-75
2022/10/03 00:10:33;;;;;;;26.20;10.20;;;;;;;11.47;100.00;98701.97;5053089;28;20109;-75
2022/10/03 00:13:08;;;;;;;14.83;6.67;;;;;;;11.47;100.00;98701.97;5053767;28;20041;-75
2022/10/03 00:15:39;;;;;;;15.23;7.05;;;;;;;11.47;100.00;98701.97;5054376;28;20352;-75
2022/10/03 00:18:18;;;;;;;15.00;6.82;;;;;;;11.47;100.00;98701.97;5052664;28;20483;-75
2022/10/03 00:21:07;;;;;;;15.32;6.55;;;;;;;11.47;100.00;98701.97;5054320;28;20479;-75
2022/10/03 00:23:44;;;;;;;13.00;6.75;;;;;;;11.47;100.00;98701.97;5052889;28;20049;-75
2022/10/03 00:26:29;;;;;;;13.55;6.25;;;;;;;11.47;100.00;98701.97;5052999;28;20514;-75
2022/10/03 00:29:35;;;;;;;19.65;7.50;;;;;;;11.47;100.00;98701.97;5054071;28;20057;-75
2022/10/03 00:32:11;;;;;;;13.75;6.38;;;;;;;11.47;100.00;98701.97;5060475;28;20045;-75
2022/10/03 00:34:49;;;;;;;11.25;5.70;;;;;;;11.47;100.00;98701.97;5053174;28;20053;-75
2022/10/03 00:37:25;;;;;;;11.60;5.82;;;;;;;11.47;100.00;98701.97;5052837;28;20049;-75
2022/10/03 00:40:24;;;;;;;14.20;6.20;;;;;;;11.47;100.00;98701.97;5052859;28;20441;-75
2022/10/03 00:43:26;;;;;;;14.82;7.95;;;;;;;11.47;100.00;98701.97;4991464;28;20062;-75
2022/10/03 00:46:22;;;;;;;13.15;7.00;;;;;;;11.47;100.00;98701.97;4991238;28;20090;-75
2022/10/03 00:49:14;;;;;;;25.55;14.23;;;;;;;11.47;100.00;98701.97;4990781;28;20097;-75
2022/10/03 00:51:51;;;;;;;27.88;10.48;;;;;;;11.47;100.00;98701.97;4975502;28;20099;-75
2022/10/03 00:54:28;;;;;;;17.67;7.78;;;;;;;11.47;100.00;98701.97;4991882;28;20635;-75
2022/10/03 00:57:13;;;;;;;15.32;6.10;;;;;;;11.47;100.00;98701.97;4990666;28;20065;-75
2022/10/03 01:00:01;;;;;;;13.48;6.28;;;;;;;11.47;100.00;98701.97;4973757;28;20047;-75
2022/10/03 01:02:37;;;;;;;14.85;6.13;;;;;;;11.47;100.00;98701.97;4971799;28;20047;-75
2022/10/03 01:05:12;;;;;;;17.10;7.05;;;;;;;11.47;100.00;98701.97;4971453;28;20043;-75
2022/10/03 01:08:04;;;;;;;16.65;7.03;;;;;;;11.47;100.00;98701.97;4971262;28;20047;-75
2022/10/03 01:10:36;;;;;;;14.73;6.65;;;;;;;11.47;100.00;98701.97;4976468;28;20108;-75
2022/10/03 01:13:22;;;;;;;15.10;6.63;;;;;;;11.47;100.00;98701.97;4987424;28;20069;-75
2022/10/03 01:15:54;;;;;;;17.63;7.68;;;;;;;11.47;100.00;98701.97;4990874;28;20042;-75
2022/10/03 01:18:32;;;;;;;16.33;6.55;;;;;;;11.47;100.00;98701.97;4990682;28;20047;-75
2022/10/03 01:21:07;;;;;;;14.48;7.30;;;;;;;11.47;100.00;98701.97;5042625;28;20483;-75
2022/10/03 01:24:11;;;;;;;18.45;7.63;;;;;;;11.47;100.00;98701.97;5052861;28;20051;-75
2022/10/03 01:26:58;;;;;;;13.63;6.07;;;;;;;11.47;100.00;98701.97;4990622;28;20053;-75
2022/10/03 01:32:34;;;;;;;13.15;6.78;;;;;;;11.47;100.00;98701.97;4983366;28;20050;-75
2022/10/03 01:35:11;;;;;;;15.88;6.95;;;;;;;11.47;100.00;98701.97;4973363;28;20051;-75
2022/10/03 01:37:45;;;;;;;15.60;6.03;;;;;;;11.47;100.00;98701.97;4971763;28;20086;-75
2022/10/03 01:40:20;;;;;;;12.73;6.50;;;;;;;11.47;100.00;98701.97;4972380;28;20136;-75
2022/10/03 01:43:10;;;;;;;16.30;7.40;;;;;;;11.47;100.00;98701.97;4971051;28;20047;-75
2022/10/03 01:45:45;;;;;;;13.85;7.63;;;;;;;11.47;100.00;98701.97;4971534;28;20051;-75
2022/10/03 01:48:19;;;;;;;17.02;7.82;;;;;;;11.47;100.00;98701.97;4972155;28;20055;-75
2022/10/03 01:50:52;;;;;;;15.80;7.38;;;;;;;11.47;100.00;98701.97;4972474;28;20101;-75
2022/10/03 01:53:27;;;;;;;16.85;7.13;;;;;;;11.47;100.00;98701.97;4971287;28;20058;-75
2022/10/03 01:56:01;;;;;;;13.88;6.53;;;;;;;11.47;100.00;98701.97;4970576;28;20572;-75
2022/10/03 01:58:34;;;;;;;12.95;6.40;;;;;;;11.47;100.00;98701.97;4979390;28;20058;-75
2022/10/03 02:01:08;;;;;;;15.98;6.80;;;;;;;11.47;100.00;98701.97;4990728;28;20054;-75
2022/10/03 02:03:38;;;;;;;15.10;7.30;;;;;;;11.47;100.00;98701.97;5026461;28;20045;-75
2022/10/03 02:06:11;;;;;;;16.20;7.30;;;;;;;11.47;100.00;98701.97;5051262;28;20045;-75
2022/10/03 02:08:47;;;;;;;17.13;7.25;;;;;;;11.47;100.00;98701.97;5050392;28;20049;-76
2022/10/03 02:11:28;;;;;;;14.82;6.95;;;;;;;11.47;100.00;98701.97;5050881;28;20045;-75
2022/10/03 02:13:59;;;;;;;16.15;6.68;;;;;;;11.47;100.00;98701.97;5051491;28;20094;-75
2022/10/03 02:16:33;;;;;;;22.05;11.32;;;;;;;11.47;100.00;98701.97;5050955;28;20052;-75
2022/10/03 02:19:06;;;;;;;35.30;17.98;;;;;;;11.47;100.00;98701.97;5051070;28;20101;-75
2022/10/03 02:21:34;;;;;;;32.85;12.27;;;;;;;11.47;100.00;98701.97;5051570;28;20048;-75
2022/10/03 02:24:15;;;;;;;17.85;7.18;;;;;;;11.47;100.00;98701.97;5050944;28;20048;-75
2022/10/03 02:26:58;;;;;;;13.68;6.10;;;;;;;11.47;100.00;98701.97;5050669;28;20060;-76
2022/10/03 02:29:51;;;;;;;19.60;6.93;;;;;;;11.47;100.00;98701.97;5052618;28;20052;-75
2022/10/03 02:32:54;;;;;;;14.52;7.05;;;;;;;11.47;100.00;98701.97;5050897;28;20073;-75
2022/10/03 02:35:49;;;;;;;16.90;6.38;;;;;;;11.47;100.00;98701.97;5050938;28;20507;-75
2022/10/03 02:38:27;;;;;;;13.75;6.15;;;;;;;11.47;100.00;98701.97;5050854;28;20480;-75
2022/10/03 02:41:17;;;;;;;15.80;7.22;;;;;;;11.47;100.00;98701.97;5051670;28;20078;-75
2022/10/03 02:44:13;;;;;;;13.70;6.07;;;;;;;11.47;100.00;98701.97;5050742;28;20049;-75
2022/10/03 02:47:09;;;;;;;19.58;7.32;;;;;;;11.47;100.00;98701.97;5050489;28;20522;-75
2022/10/03 02:49:55;;;;;;;18.75;7.10;;;;;;;11.47;100.00;98701.97;5050247;28;20045;-75
2022/10/03 02:52:48;;;;;;;13.45;5.88;;;;;;;11.47;100.00;98701.97;5050584;28;20049;-75
2022/10/03 02:55:35;;;;;;;16.98;6.95;;;;;;;11.47;100.00;98701.97;5048064;28;20502;-75
2022/10/03 02:58:21;;;;;;;13.95;6.10;;;;;;;11.47;100.00;98701.97;5049416;27;20049;-75
2022/10/03 03:01:16;;;;;;;16.27;6.88;;;;;;;11.47;100.00;98701.97;5050916;28;20051;-75
2022/10/03 03:04:16;;;;;;;13.98;6.30;;;;;;;11.47;100.00;98701.97;5046730;28;20045;-75
2022/10/03 03:06:57;;;;;;;22.50;6.30;;;;;;;11.47;100.00;98701.97;5050336;27;20056;-75
2022/10/03 03:10:01;;;;;;;14.95;6.25;;;;;;;11.47;100.00;98701.97;5049834;28;20052;-75
2022/10/03 03:13:06;;;;;;;14.63;6.18;;;;;;;11.47;100.00;98701.97;5050701;28;20056;-75
2022/10/03 03:16:17;;;;;;;14.90;6.43;;;;;;;11.47;100.00;98701.97;4969887;28;20078;-75
2022/10/03 03:18:48;;;;;;;12.95;6.32;;;;;;;11.47;100.00;98701.97;4972323;28;20047;-75
2022/10/03 03:21:24;;;;;;;13.20;6.40;;;;;;;11.47;100.00;98701.97;4968056;28;20493;-75
2022/10/03 03:24:13;;;;;;;13.80;7.18;;;;;;;11.47;100.00;98701.97;4969651;28;20051;-75
2022/10/03 03:26:55;;;;;;;13.75;6.60;;;;;;;11.47;100.00;98701.97;4969569;28;20438;-75
2022/10/03 03:29:32;;;;;;;16.45;6.32;;;;;;;11.47;100.00;98701.97;4968682;28;20681;-75
2022/10/03 03:32:06;;;;;;;15.30;6.70;;;;;;;11.47;100.00;98701.97;4969799;28;20453;-75
2022/10/03 03:34:41;;;;;;;93.15;27.20;;;;;;;11.47;100.00;98701.97;4968963;28;20193;-75
2022/10/03 03:37:13;;;;;;;19.77;8.50;;;;;;;11.47;100.00;98701.97;4970034;28;20142;-75
2022/10/03 03:39:53;;;;;;;24.10;9.48;;;;;;;11.47;100.00;98701.97;4969223;28;20051;-75
2022/10/03 03:42:42;;;;;;;23.52;8.50;;;;;;;11.47;100.00;98701.97;4968882;28;20055;-75
2022/10/03 03:45:18;;;;;;;33.08;11.93;;;;;;;11.47;100.00;98701.97;4968832;28;20051;-75
2022/10/03 03:48:00;;;;;;;63.03;18.88;;;;;;;11.47;100.00;98701.97;4967868;28;20516;-75
2022/10/03 03:50:45;;;;;;;53.15;23.48;;;;;;;11.47;100.00;98701.97;4985083;28;20059;-75
2022/10/03 03:53:40;;;;;;;98.85;39.72;;;;;;;11.47;100.00;98701.97;5049252;28;20052;-75
2022/10/03 03:56:22;;;;;;;186.07;75.03;;;;;;;11.47;100.00;98701.97;5049269;28;20507;-75
2022/10/03 03:58:55;;;;;;;50.63;20.00;;;;;;;11.47;100.00;98701.97;5050888;28;20448;-75
2022/10/03 04:01:47;;;;;;;24.40;9.32;;;;;;;11.47;100.00;98701.97;5049193;28;20052;-75
2022/10/03 04:04:34;;;;;;;47.47;15.15;;;;;;;11.47;100.00;98701.97;5049568;28;20049;-75
2022/10/03 04:07:12;;;;;;;49.45;15.00;;;;;;;11.47;100.00;98701.97;5050342;28;20077;-75
2022/10/03 04:09:59;;;;;;;34.17;12.13;;;;;;;11.47;100.00;98701.97;5049345;28;20045;-75
2022/10/03 04:12:38;;;;;;;23.23;7.95;;;;;;;11.47;100.00;98701.97;5049923;28;20116;-75
2022/10/03 04:15:26;;;;;;;24.20;8.75;;;;;;;11.47;100.00;98701.97;5049209;28;20488;-75
2022/10/03 04:21:42;;;;;;;24.50;13.57;;;;;;;11.47;100.00;98701.97;5046309;28;20636;-75
2022/10/03 04:24:48;;;;;;;30.70;15.93;;;;;;;11.47;100.00;98701.97;5041040;28;20072;-75
2022/10/03 04:27:40;;;;;;;26.95;12.50;;;;;;;11.47;100.00;98701.97;4984434;28;20855;-75
2022/10/03 04:30:10;;;;;;;21.30;8.52;;;;;;;11.47;100.00;98701.97;4984217;28;20054;-76
2022/10/03 04:32:51;;;;;;;16.42;7.70;;;;;;;11.47;100.00;98701.97;4986541;28;20046;-75
2022/10/03 04:36:02;;;;;;;21.85;9.20;;;;;;;11.47;100.00;98701.97;4988184;28;20153;-75
2022/10/03 04:38:43;;;;;;;15.38;8.40;;;;;;;11.47;100.00;98701.97;4990219;28;20050;-76
2022/10/03 04:41:26;;;;;;;14.40;7.80;;;;;;;11.47;100.00;98701.97;4991388;28;20552;-75
2022/10/03 04:44:02;;;;;;;15.25;7.55;;;;;;;11.47;100.00;98701.97;4991045;28;20070;-75
2022/10/03 04:46:35;;;;;;;14.65;6.90;;;;;;;11.47;100.00;98701.97;4990917;28;20137;-75
2022/10/03 04:49:10;;;;;;;17.05;9.02;;;;;;;11.47;100.00;98701.97;4990989;28;20490;-75
2022/10/03 04:51:46;;;;;;;13.95;7.45;;;;;;;11.47;100.00;98701.97;4991401;28;20077;-75
2022/10/03 04:54:20;;;;;;;14.48;7.72;;;;;;;11.47;100.00;98701.97;4990447;28;20046;-75
2022/10/03 04:56:53;;;;;;;14.68;7.80;;;;;;;11.47;100.00;98701.97;4989703;28;20398;-75
2022/10/03 04:59:30;;;;;;;16.33;7.90;;;;;;;11.47;100.00;98701.97;4989683;28;20113;-75
2022/10/03 05:02:03;;;;;;;13.82;7.10;;;;;;;11.47;100.00;98701.97;4989736;28;20058;-74
2022/10/03 05:04:36;;;;;;;15.35;8.05;;;;;;;11.47;100.00;98701.97;5047194;28;20052;-75
2022/10/03 05:07:11;;;;;;;14.10;8.05;;;;;;;11.47;100.00;98701.97;5070171;28;20086;-74
2022/10/03 05:09:46;;;;;;;14.13;8.18;;;;;;;11.47;100.00;98701.97;5070332;28;20048;-75
2022/10/03 05:12:16;;;;;;;13.90;7.40;;;;;;;11.47;100.00;98701.97;5070429;28;20174;-73
2022/10/03 05:15:06;;;;;;;18.52;10.18;;;;;;;11.47;100.00;98701.97;5045091;28;20057;-75
2022/10/03 05:17:44;;;;;;;15.00;7.43;;;;;;;11.47;100.00;98701.97;5030774;28;20064;-77
2022/10/03 05:20:42;;;;;;;15.02;6.82;;;;;;;11.47;100.00;98701.97;5043848;28;20045;-75
2022/10/03 05:23:19;;;;;;;16.50;8.23;;;;;;;11.47;100.00;98701.97;5036846;28;20067;-75
2022/10/03 05:25:53;;;;;;;16.35;7.13;;;;;;;11.47;100.00;98701.97;5031119;28;20046;-75
2022/10/03 05:28:28;;;;;;;18.30;7.32;;;;;;;11.47;100.00;98701.97;5032674;28;20045;-76
2022/10/03 05:31:04;;;;;;;15.95;7.63;;;;;;;11.47;100.00;98701.97;5033492;28;20083;-75
2022/10/03 05:33:39;;;;;;;22.88;9.07;;;;;;;11.47;100.00;98701.97;5033375;28;20045;-76
2022/10/03 05:36:15;;;;;;;16.08;7.50;;;;;;;11.47;100.00;98701.97;5031949;28;20046;-76
2022/10/03 05:39:00;;;;;;;15.20;8.50;;;;;;;11.47;100.00;98701.97;5031776;28;20069;-75
2022/10/03 05:41:31;;;;;;;21.52;11.10;;;;;;;11.47;100.00;98701.97;5031811;28;20056;-75
2022/10/03 05:44:04;;;;;;;21.95;10.38;;;;;;;11.47;100.00;98701.97;5030160;28;20045;-75
2022/10/03 05:46:47;;;;;;;18.15;9.45;;;;;;;11.47;100.00;98701.97;5032022;28;20638;-75
2022/10/03 05:49:34;;;;;;;43.58;21.13;;;;;;;11.47;100.00;98701.97;5031566;28;20045;-76
2022/10/03 05:52:20;;;;;;;35.40;16.52;;;;;;;11.47;100.00;98701.97;5031820;28;20038;-76
2022/10/03 05:55:04;;;;;;;31.05;11.88;;;;;;;11.47;100.00;98701.97;5031588;28;20046;-75
2022/10/03 05:57:51;;;;;;;24.88;9.80;;;;;;;11.47;100.00;98701.97;5030957;28;20535;-75
2022/10/03 06:00:20;;;;;;;17.10;7.53;;;;;;;11.47;100.00;98701.97;5052886;28;20045;-75
2022/10/03 06:03:19;;;;;;;31.92;11.95;;;;;;;11.47;100.00;98701.97;5051343;28;20098;-76
2022/10/03 06:05:57;;;;;;;16.30;7.93;;;;;;;11.47;100.00;98701.97;5052155;28;20080;-75
2022/10/03 06:08:56;;;;;;;28.38;10.75;;;;;;;11.47;100.00;98701.97;5051289;28;20049;-75
2022/10/03 06:11:48;;;;;;;18.05;7.80;;;;;;;11.47;100.00;98701.97;5050898;28;20129;-75
2022/10/03 06:14:33;;;;;;;26.02;10.27;;;;;;;11.47;100.00;98701.97;5041950;28;20107;-75
2022/10/03 06:17:21;;;;;;;12.82;6.50;;;;;;;11.47;100.00;98701.97;5051098;28;20110;-75
2022/10/03 06:19:51;;;;;;;28.75;10.65;;;;;;;11.47;100.00;98701.97;5051656;28;20403;-75
2022/10/03 06:22:50;;;;;;;34.55;11.85;;;;;;;11.47;100.00;98701.97;5050904;28;20045;-75
2022/10/03 06:25:50;;;;;;;26.20;9.32;;;;;;;11.47;100.00;98701.97;5050847;28;20053;-75
2022/10/03 06:28:45;;;;;;;23.80;9.05;;;;;;;11.47;100.00;98701.97;4988746;28;20042;-75
2022/10/03 06:31:46;;;;;;;24.65;9.68;;;;;;;11.47;100.00;98701.97;4989898;28;20441;-74
2022/10/03 06:35:07;;;;;;;27.40;10.45;;;;;;;11.47;100.00;98701.97;4989982;28;20436;-75
2022/10/03 06:37:56;;;;;;;16.30;7.50;;;;;;;11.47;100.00;98701.97;4989620;28;20405;-75
2022/10/03 06:40:41;;;;;;;18.98;7.55;;;;;;;11.47;100.00;98701.97;4990183;28;20050;-76
2022/10/03 06:43:34;;;;;;;32.17;12.23;;;;;;;11.47;100.00;98701.97;4990041;28;20062;-75
2022/10/03 06:46:31;;;;;;;20.13;8.73;;;;;;;11.47;100.00;98701.97;4986202;28;20049;-75
2022/10/03 06:49:30;;;;;;;15.82;7.07;;;;;;;11.47;100.00;98701.97;4990273;28;20051;-75
2022/10/03 06:52:25;;;;;;;15.90;8.45;;;;;;;11.47;100.00;98701.97;4986683;28;20049;-75
2022/10/03 06:55:24;;;;;;;15.35;8.80;;;;;;;11.47;100.00;98701.97;5031394;28;20630;-75
2022/10/03 06:58:27;;;;;;;26.95;9.60;;;;;;;11.47;100.00;98701.97;5031215;28;20054;-75
2022/10/03 07:01:00;;;;;;;17.55;7.35;;;;;;;11.47;100.00;98701.97;4972719;28;20063;-76
2022/10/03 07:03:56;;;;;;;16.10;8.85;;;;;;;11.47;100.00;98701.97;4964104;28;20070;-75
2022/10/03 07:06:50;;;;;;;12.75;7.07;;;;;;;11.47;100.00;98701.97;5016753;28;20176;-75
2022/10/03 07:10:04;;;;;;;15.25;6.20;;;;;;;11.47;100.00;98701.97;5031232;28;20057;-75
2022/10/03 07:12:55;;;;;;;16.60;7.63;;;;;;;11.47;100.00;98701.97;5023189;28;20068;-75
2022/10/03 07:16:07;;;;;;;14.30;7.15;;;;;;;11.47;100.00;98701.97;5030691;28;20580;-75
2022/10/03 07:19:07;;;;;;;15.45;7.30;;;;;;;11.47;100.00;98701.97;5026662;28;20046;-75
2022/10/03 07:22:06;;;;;;;18.27;5.93;;;;;;;11.47;100.00;98701.97;5023639;28;20190;-76
2022/10/03 07:25:07;;;;;;;20.83;7.75;;;;;;;11.47;100.00;98701.97;5011280;28;20046;-75
2022/10/03 07:27:49;;;;;;;14.93;6.25;;;;;;;11.47;100.00;98701.97;5030573;28;20041;-75
2022/10/03 07:30:18;;;;;;;13.90;6.18;;;;;;;11.47;100.00;98701.97;5015130;28;20049;-76
2022/10/03 07:33:22;;;;;;;17.50;7.35;;;;;;;11.47;100.00;98701.97;4992543;28;20059;-75
2022/10/03 07:39:30;;;;;;;12.82;5.30;;;;;;;11.47;100.00;98701.97;5092508;28;20122;-75
2022/10/03 07:42:28;;;;;;;11.05;4.47;;;;;;;11.47;100.00;98701.97;5103096;28;20518;-75
2022/10/03 07:45:29;;;;;;;10.52;4.90;;;;;;;11.47;100.00;98701.97;5099628;28;20043;-75
2022/10/03 07:48:14;;;;;;;14.43;5.22;;;;;;;11.47;100.00;98701.97;5096593;28;20461;-75
2022/10/03 07:50:51;;;;;;;13.10;5.10;;;;;;;11.47;100.00;98701.97;5098558;28;20079;-75
2022/10/03 07:53:33;;;;;;;10.30;4.65;;;;;;;11.47;100.00;98701.97;5105167;28;20162;-75
2022/10/03 07:56:10;;;;;;;13.15;5.35;;;;;;;11.47;100.00;98701.97;5099531;28;20052;-76
2022/10/03 07:59:20;;;;;;;9.20;4.40;;;;;;;11.47;100.00;98701.97;5098464;28;20089;-76
2022/10/03 08:01:57;;;;;;;8.70;4.22;;;;;;;11.47;100.00;98701.97;5103023;28;20177;-75
2022/10/03 08:05:04;;;;;;;9.40;4.45;;;;;;;11.47;100.00;98701.97;5097398;28;20492;-75
2022/10/03 08:07:44;;;;;;;15.00;5.20;;;;;;;11.47;100.00;98701.97;5082805;28;20043;-75
2022/10/03 08:10:23;;;;;;;17.80;7.40;;;;;;;11.47;100.00;98701.97;5098387;28;20064;-75
2022/10/03 08:13:02;;;;;;;17.02;8.02;;;;;;;11.47;100.00;98701.97;5109684;27;20059;-75
2022/10/03 08:15:44;;;;;;;36.70;16.95;;;;;;;11.47;100.00;98701.97;5074177;28;20041;-75
2022/10/03 08:18:42;;;;;;;16.95;8.52;;;;;;;11.47;100.00;98701.97;5039738;28;20049;-76
2022/10/03 08:21:12;;;;;;;20.40;8.68;;;;;;;11.47;100.00;98701.97;4967905;28;20055;-76
2022/10/03 08:24:12;;;;;;;14.18;6.15;;;;;;;11.47;100.00;98701.97;4981703;28;20065;-75
2022/10/03 08:26:54;;;;;;;13.32;6.75;;;;;;;11.47;100.00;98701.97;4986066;28;20483;-75
2022/10/03 08:30:14;;;;;;;11.07;5.60;;;;;;;11.47;100.00;98701.97;4987454;28;20133;-76
2022/10/03 08:33:22;;;;;;;14.57;7.10;;;;;;;11.47;100.00;98701.97;5002282;28;20421;-76
2022/10/03 08:36:26;;;;;;;14.32;7.50;;;;;;;11.47;100.00;98701.97;4990686;28;20054;-75
2022/10/03 08:39:05;;;;;;;12.52;5.72;;;;;;;11.47;100.00;98701.97;5009572;28;20064;-75
2022/10/03 08:42:13;;;;;;;12.00;5.82;;;;;;;11.47;100.00;98701.97;5011015;28;20132;-75
2022/10/03 08:45:13;;;;;;;12.05;5.38;;;;;;;11.47;100.00;98701.97;5001604;28;20058;-76
2022/10/03 08:48:14;;;;;;;18.95;10.63;;;;;;;11.47;100.00;98701.97;5005380;28;20578;-76
2022/10/03 08:50:52;;;;;;;12.90;7.22;;;;;;;11.47;100.00;98701.97;5004717;28;20046;-76
2022/10/03 08:53:59;;;;;;;15.40;8.75;;;;;;;11.47;100.00;98701.97;5007504;28;20077;-75
2022/10/03 08:56:36;;;;;;;13.88;6.43;;;;;;;11.47;100.00;98701.97;4994501;28;20104;-75
2022/10/03 08:59:29;;;;;;;16.05;7.65;;;;;;;11.47;100.00;98701.97;4953494;28;20055;-75
2022/10/03 09:02:32;;;;;;;22.42;12.77;;;;;;;11.47;100.00;98701.97;4940098;28;20046;-75
2022/10/03 09:05:31;;;;;;;12.95;6.50;;;;;;;11.47;100.00;98701.97;4960108;28;20050;-75
2022/10/03 09:08:33;;;;;;;10.82;5.53;;;;;;;11.47;100.00;98701.97;5036135;28;20431;-75
2022/10/03 09:11:34;;;;;;;21.75;11.43;;;;;;;11.47;100.00;98701.97;5041155;28;20045;-76
2022/10/03 09:14:34;;;;;;;14.55;7.45;;;;;;;11.47;100.00;98701.97;5041845;28;20518;-75
2022/10/03 09:17:33;;;;;;;15.40;7.97;;;;;;;11.47;100.00;98701.97;5048225;28;20041;-75
2022/10/03 09:20:34;;;;;;;16.15;8.77;;;;;;;11.47;100.00;98701.97;5037631;28;20042;-75
2022/10/03 09:23:24;;;;;;;11.10;4.88;;;;;;;11.47;100.00;98701.97;4960865;28;20398;-75
2022/10/03 09:26:36;;;;;;;15.35;6.60;;;;;;;11.47;100.00;98701.97;4956149;28;20070;-75
2022/10/03 09:29:27;;;;;;;13.48;5.63;;;;;;;11.47;100.00;98701.97;4967019;28;20498;-76
2022/10/03 09:32:26;;;;;;;11.48;5.90;;;;;;;11.47;100.00;98701.97;4949416;28;20051;-76
2022/10/03 09:35:10;;;;;;;12.23;5.95;;;;;;;11.47;100.00;98701.97;4957714;28;20063;-75
2022/10/03 09:38:00;;;;;;;13.05;5.88;;;;;;;11.47;100.00;98701.97;4961954;28;20047;-75
2022/10/03 09:40:56;;;;;;;13.10;6.40;;;;;;;11.47;100.00;98701.97;4967558;28;20073;-76
2022/10/03 09:43:56;;;;;;;11.35;5.60;;;;;;;11.47;100.00;98701.97;4911803;29;20486;-75
2022/10/03 09:50:27;;;;;;;11.25;4.88;;;;;;;11.47;100.00;98701.97;4913662;29;20059;-75
2022/10/03 09:53:18;;;;;;;11.95;5.43;;;;;;;11.47;100.00;98701.97;4911821;29;20066;-76
2022/10/03 09:56:08;;;;;;;10.32;5.28;;;;;;;11.47;100.00;98701.97;4913737;29;20067;-76
2022/10/03 09:59:00;;;;;;;13.23;5.03;;;;;;;11.47;100.00;98701.97;4905147;29;20427;-75
2022/10/03 10:01:32;;;;;;;10.85;4.90;;;;;;;11.47;100.00;98701.97;4981852;28;20054;-75
2022/10/03 10:04:32;;;;;;;10.48;4.50;;;;;;;11.47;100.00;98701.97;4974140;28;20054;-75
2022/10/03 10:07:24;;;;;;;10.32;5.00;;;;;;;11.47;100.00;98701.97;4986576;28;20100;-75
2022/10/03 10:10:20;;;;;;;14.40;5.63;;;;;;;11.47;100.00;98701.97;4985373;28;20058;-75
2022/10/03 10:13:11;;;;;;;9.10;4.07;;;;;;;11.47;100.00;98701.97;4975554;28;20401;-75
2022/10/03 10:16:16;;;;;;;6.75;3.90;;;;;;;11.47;100.00;98701.97;4989467;28;20054;-75
2022/10/03 10:19:20;;;;;;;14.70;6.65;;;;;;;11.47;100.00;98701.97;4911083;28;20393;-75
2022/10/03 10:22:21;;;;;;;14.30;6.95;;;;;;;11.47;100.00;98701.97;4984263;28;20124;-75
2022/10/03 10:25:23;;;;;;;10.63;4.70;;;;;;;11.47;100.00;98701.97;5028319;28;20065;-75
2022/10/03 10:28:06;;;;;;;8.68;4.30;;;;;;;11.47;100.00;98701.97;5020470;28;20085;-75
2022/10/03 10:31:02;;;;;;;9.80;4.50;;;;;;;11.47;100.00;98701.97;5021841;28;20058;-75
2022/10/03 10:34:17;;;;;;;14.77;7.10;;;;;;;11.47;100.00;98701.97;5026971;28;20046;-75
2022/10/03 10:37:23;;;;;;;8.68;3.92;;;;;;;11.47;100.00;98701.97;4962778;28;20055;-75
2022/10/03 10:40:18;;;;;;;10.50;5.15;;;;;;;11.47;100.00;98701.97;4953036;28;20047;-75
2022/10/03 10:43:24;;;;;;;13.40;6.65;;;;;;;11.47;100.00;98701.97;4965998;28;20486;-75
2022/10/03 10:46:16;;;;;;;11.45;5.97;;;;;;;11.47;100.00;98701.97;4962162;28;20053;-75
2022/10/03 10:49:38;;;;;;;11.65;5.55;;;;;;;11.47;100.00;98701.97;4961182;28;20055;-75
2022/10/03 10:52:46;;;;;;;16.08;7.43;;;;;;;11.47;100.00;98701.97;4960359;28;20102;-77
2022/10/03 10:55:41;;;;;;;12.55;6.13;;;;;;;11.47;100.00;98701.97;4941291;28;20050;-75
2022/10/03 10:58:47;;;;;;;10.75;4.90;;;;;;;11.47;100.00;98701.97;5002087;28;20066;-74
2022/10/03 11:01:46;;;;;;;11.90;5.30;;;;;;;11.47;100.00;98701.97;4997951;28;20575;-75
2022/10/03 11:04:38;;;;;;;14.38;6.68;;;;;;;11.47;100.00;98701.97;4989948;28;20057;-75
2022/10/03 11:07:37;;;;;;;12.27;6.25;;;;;;;11.47;100.00;98701.97;4963681;28;20051;-75
2022/10/03 11:10:34;;;;;;;11.82;5.15;;;;;;;11.47;100.00;98701.97;4965336;28;20055;-74
2022/10/03 11:13:53;;;;;;;10.70;4.90;;;;;;;11.47;100.00;98701.97;4981922;28;20056;-74
2022/10/03 11:16:53;;;;;;;10.77;5.07;;;;;;;11.47;100.00;98701.97;5020259;28;20049;-75
2022/10/03 11:19:43;;;;;;;12.27;5.43;;;;;;;11.47;100.00;98701.97;5015133;28;20120;-74
2022/10/03 11:22:48;;;;;;;18.10;8.45;;;;;;;11.47;100.00;98701.97;5015430;28;20042;-75
2022/10/03 11:25:50;;;;;;;16.70;8.38;;;;;;;11.47;100.00;98701.97;5020962;28;20124;-75
2022/10/03 11:28:52;;;;;;;10.07;5.20;;;;;;;11.47;100.00;98701.97;5016044;28;20086;-75
2022/10/03 11:31:57;;;;;;;13.68;7.35;;;;;;;11.47;100.00;98701.97;5037734;28;20062;-75
2022/10/03 11:35:04;;;;;;;23.40;11.38;;;;;;;11.47;100.00;98701.97;5097869;28;20047;-75
2022/10/03 11:37:41;;;;;;;10.82;5.22;;;;;;;11.47;100.00;98701.97;5099920;28;20036;-75
2022/10/03 11:40:23;;;;;;;13.48;7.18;;;;;;;11.47;100.00;98701.97;5100348;28;20047;-75
2022/10/03 11:42:57;;;;;;;11.52;6.22;;;;;;;11.47;100.00;98701.97;5098897;28;20089;-74
2022/10/03 11:45:28;;;;;;;15.45;5.85;;;;;;;11.47;100.00;98701.97;5047376;28;20069;-74
2022/10/03 11:48:19;;;;;;;9.27;4.70;;;;;;;11.47;100.00;98701.97;5041946;28;20041;-75
2022/10/03 11:50:50;;;;;;;9.10;4.72;;;;;;;11.47;100.00;98701.97;5042933;28;20503;-75
2022/10/03 11:53:38;;;;;;;7.13;3.50;;;;;;;11.47;100.00;98701.97;5042778;28;20042;-74
2022/10/03 11:56:28;;;;;;;10.20;3.10;;;;;;;11.47;100.00;98701.97;5043005;28;20045;-74
2022/10/03 11:59:11;;;;;;;13.00;5.68;;;;;;;11.47;100.00;98701.97;5045817;28;20040;-74
2022/10/03 12:01:51;;;;;;;18.73;8.02;;;;;;;11.47;100.00;98701.97;5040802;28;20061;-75
2022/10/03 12:04:26;;;;;;;6.20;3.03;;;;;;;11.47;100.00;98701.97;5035163;28;20071;-74
2022/10/03 12:09:59;;;;;;;7.22;3.00;;;;;;;11.47;100.00;98701.97;5049050;28;20523;-75
2022/10/03 12:12:34;;;;;;;4.47;2.10;;;;;;;11.47;100.00;98701.97;5050378;28;20797;-76
2022/10/03 12:15:10;;;;;;;6.95;3.28;;;;;;;11.47;100.00;98701.97;5049016;28;20053;-75
2022/10/03 12:17:39;;;;;;;5.70;2.30;;;;;;;11.47;100.00;98701.97;5050503;28;20049;-75
2022/10/03 12:20:17;;;;;;;8.48;3.45;;;;;;;11.47;100.00;98701.97;5047269;28;20053;-75
2022/10/03 12:22:50;;;;;;;5.50;2.28;;;;;;;11.47;100.00;98701.97;5041045;28;20049;-75
2022/10/03 12:25:24;;;;;;;3.88;1.80;;;;;;;11.47;100.00;98701.97;5032968;28;20057;-75
2022/10/03 12:28:06;;;;;;;2.80;1.70;;;;;;;11.47;100.00;98701.97;5040532;28;20045;-76
2022/10/03 12:30:41;;;;;;;4.18;1.80;;;;;;;11.47;100.00;98701.97;5045129;28;20102;-75
2022/10/03 12:33:38;;;;;;;2.80;1.40;;;;;;;11.47;100.00;98701.97;5043342;28;20049;-75
2022/10/03 12:36:06;;;;;;;;;;;;;;;11.47;100.00;98701.97;5047214;28;20499;-75
2022/10/03 12:38:45;;;;;;;3.42;1.70;;;;;;;11.47;100.00;98701.97;5048900;28;19931;-75
2022/10/03 12:41:23;;;;;;;2.92;2.00;;;;;;;11.47;100.00;98701.97;5044954;28;20495;-75
2022/10/03 12:44:05;;;;;;;4.07;2.03;;;;;;;11.47;100.00;98701.97;5044162;28;20041;-75
2022/10/03 12:46:39;;;;;;;5.80;2.85;;;;;;;11.47;100.00;98701.97;5041488;28;20488;-75
2022/10/03 12:49:11;;;;;;;2.42;1.65;;;;;;;11.47;100.00;98701.97;5034036;28;20423;-75
2022/10/03 12:51:51;;;;;;;2.58;1.60;;;;;;;11.47;100.00;98701.97;5032869;28;20099;-75
2022/10/03 12:54:32;;;;;;;6.90;1.98;;;;;;;11.47;100.00;98701.97;5032321;28;20096;-75
2022/10/03 12:57:29;;;;;;;6.25;1.95;;;;;;;11.47;100.00;98701.97;5046108;28;20493;-75
2022/10/03 12:59:59;;;;;;;;;;;;;;;11.47;100.00;98701.97;5045365;28;20507;-75
2022/10/03 13:02:31;;;;;;;3.85;1.92;;;;;;;11.47;100.00;98701.97;5045710;28;19954;-74
2022/10/03 13:05:32;;;;;;;3.70;1.90;;;;;;;11.47;100.00;98701.97;5042385;28;20044;-75